Time;durP1;ratioP1;P1;durP2;ratioP2;P2;SDS_P1;SDS_P2;PMS_P1;PMS_P2;Temp;Humidity;BMP_temperature;BMP_pressure;BME280_temperature;BME280_humidity;BME280_pressure;Samples;Min_cycle;Max_cycle;Signal;HPM_P1;HPM_P2
2023/10/16 00:02:12;;;;;;;2.00;0.65;;;;;;;-143.29;100.00;62188.47;5071680;28;20025;-93
2023/10/16 00:04:44;;;;;;;2.17;0.50;;;;;;;-143.29;100.00;62188.47;5073051;28;20108;-92
2023/10/16 00:07:13;;;;;;;4.32;0.80;;;;;;;-143.29;100.00;62188.47;5073177;28;20035;-93
2023/10/16 00:09:40;;;;;;;1.73;0.80;;;;;;;-143.29;100.00;62188.47;5072101;28;20024;-94
2023/10/16 00:12:05;;;;;;;5.13;0.60;;;;;;;-143.29;100.00;62188.47;5087185;28;20466;-92
2023/10/16 00:14:31;;;;;;;1.95;0.60;;;;;;;-143.29;100.00;62188.47;5091858;28;20027;-92
2023/10/16 00:16:57;;;;;;;2.05;0.73;;;;;;;-143.29;100.00;62188.47;5093118;28;20024;-92
2023/10/16 00:19:24;;;;;;;2.85;0.52;;;;;;;-143.29;100.00;62188.47;5091009;28;20036;-92
2023/10/16 00:21:52;;;;;;;0.95;0.77;;;;;;;-143.29;100.00;62188.47;5093079;28;20020;-93
2023/10/16 00:24:17;;;;;;;2.25;0.50;;;;;;;-143.29;100.00;62188.47;5090476;28;20032;-91
2023/10/16 00:26:49;;;;;;;2.45;0.57;;;;;;;-143.29;100.00;62188.47;5084602;28;20368;-94
2023/10/16 00:29:32;;;;;;;0.73;0.55;;;;;;;-143.29;100.00;62188.47;5051484;28;20032;-92
2023/10/16 00:31:59;;;;;;;2.15;0.70;;;;;;;-143.29;100.00;62188.47;5051378;28;20502;-93
2023/10/16 00:34:24;;;;;;;6.72;0.70;;;;;;;-143.29;100.00;62188.47;5051373;28;20382;-94
2023/10/16 00:36:53;;;;;;;7.38;0.57;;;;;;;-143.29;100.00;62188.47;5051201;28;20028;-92
2023/10/16 00:39:20;;;;;;;1.55;0.68;;;;;;;-143.29;100.00;62188.47;5052438;28;20079;-93
2023/10/16 00:41:50;;;;;;;1.80;0.82;;;;;;;-143.29;100.00;62188.47;5085245;28;20051;-93
2023/10/16 00:44:18;;;;;;;1.73;0.70;;;;;;;-143.29;100.00;62188.47;5091201;28;20030;-91
2023/10/16 00:46:48;;;;;;;1.20;0.60;;;;;;;-143.29;100.00;62188.47;5092571;28;20555;-92
2023/10/16 00:49:14;;;;;;;1.02;0.68;;;;;;;-143.29;100.00;62188.47;5092763;28;20032;-92
2023/10/16 00:51:41;;;;;;;1.23;0.55;;;;;;;-143.29;100.00;62188.47;5092249;28;20462;-92
2023/10/16 00:54:28;;;;;;;5.07;0.90;;;;;;;-143.29;100.00;62188.47;5090357;28;20106;-91
2023/10/16 00:56:57;;;;;;;2.72;0.60;;;;;;;-143.29;100.00;62188.47;5086057;28;20060;-93
2023/10/16 00:59:23;;;;;;;2.78;0.77;;;;;;;-143.29;100.00;62188.47;5092377;28;20016;-92
2023/10/16 01:02:04;;;;;;;1.83;0.70;;;;;;;-143.29;100.00;62188.47;5090620;28;20089;-92
2023/10/16 01:04:31;;;;;;;3.10;0.77;;;;;;;-143.29;100.00;62188.47;5092319;28;20454;-92
2023/10/16 01:06:57;;;;;;;2.50;0.55;;;;;;;-143.29;100.00;62188.47;5092169;28;20363;-92
2023/10/16 01:09:22;;;;;;;0.60;0.55;;;;;;;-143.29;100.00;62188.47;5089819;28;20111;-91
2023/10/16 01:11:48;;;;;;;2.72;0.60;;;;;;;-143.29;100.00;62188.47;5079383;28;20051;-92
2023/10/16 01:14:14;;;;;;;4.45;0.80;;;;;;;-143.29;100.00;62188.47;5089662;28;20053;-91
2023/10/16 01:16:39;;;;;;;5.20;0.80;;;;;;;-143.29;100.00;62188.47;5092126;28;20431;-91
2023/10/16 01:19:09;;;;;;;4.70;0.70;;;;;;;-143.29;100.00;62188.47;5092023;28;20031;-92
2023/10/16 01:21:34;;;;;;;2.20;0.80;;;;;;;-143.29;100.00;62188.47;5091922;28;20031;-92
2023/10/16 01:24:09;;;;;;;3.85;0.77;;;;;;;-143.29;100.00;62188.47;5090148;28;20021;-90
2023/10/16 01:26:35;;;;;;;2.45;0.85;;;;;;;-143.29;100.00;62188.47;5084297;28;20399;-92
2023/10/16 01:29:06;;;;;;;1.98;0.65;;;;;;;-143.29;100.00;62188.47;5092158;28;20028;-91
2023/10/16 01:31:33;;;;;;;1.40;0.90;;;;;;;-143.29;100.00;62188.47;5096373;28;20028;-92
2023/10/16 01:33:59;;;;;;;3.00;1.00;;;;;;;-143.29;100.00;62188.47;5096213;28;20044;-92
2023/10/16 01:36:24;;;;;;;2.35;0.82;;;;;;;-143.29;100.00;62188.47;5096057;28;20028;-92
2023/10/16 01:38:49;;;;;;;1.85;0.90;;;;;;;-143.29;100.00;62188.47;5094204;28;20059;-92
2023/10/16 01:41:15;;;;;;;1.75;0.73;;;;;;;-143.29;100.00;62188.47;5089047;28;20024;-91
2023/10/16 01:43:43;;;;;;;3.30;1.20;;;;;;;-143.29;100.00;62188.47;5095781;28;20395;-92
2023/10/16 01:46:12;;;;;;;1.80;0.80;;;;;;;-143.29;100.00;62188.47;5095555;28;20031;-92
2023/10/16 01:48:42;;;;;;;3.15;0.93;;;;;;;-143.29;100.00;62188.47;5095815;28;20027;-92
2023/10/16 01:51:11;;;;;;;1.95;0.98;;;;;;;-143.29;100.00;62188.47;5094658;28;20047;-92
2023/10/16 01:53:40;;;;;;;1.75;1.17;;;;;;;-143.29;100.00;62188.47;5093065;28;20430;-91
2023/10/16 01:56:13;;;;;;;1.52;0.80;;;;;;;-143.29;100.00;62188.47;5094519;28;20047;-91
2023/10/16 01:58:44;;;;;;;2.08;0.60;;;;;;;-143.29;100.00;62188.47;5094348;28;20025;-92
2023/10/16 02:01:15;;;;;;;2.63;1.27;;;;;;;-143.29;100.00;62188.47;5095512;28;20016;-90
2023/10/16 02:03:46;;;;;;;2.60;0.70;;;;;;;-143.29;100.00;62188.47;5095531;28;20036;-92
2023/10/16 02:06:12;;;;;;;1.67;0.52;;;;;;;-143.29;100.00;62188.47;5095709;28;20391;-91
2023/10/16 02:08:39;;;;;;;1.58;0.80;;;;;;;-143.29;100.00;62188.47;5089520;28;20028;-91
2023/10/16 02:11:04;;;;;;;5.28;1.23;;;;;;;-143.29;100.00;62188.47;5074006;28;20020;-91
2023/10/16 02:13:35;;;;;;;8.02;1.00;;;;;;;-143.29;100.00;62188.47;5074020;28;20028;-91
2023/10/16 02:16:06;;;;;;;3.10;1.10;;;;;;;-143.29;100.00;62188.47;5075060;28;20024;-91
2023/10/16 02:18:37;;;;;;;0.70;0.65;;;;;;;-143.29;100.00;62188.47;5073743;28;20382;-91
2023/10/16 02:21:06;;;;;;;2.80;0.90;;;;;;;-143.29;100.00;62188.47;5075348;28;20036;-92
2023/10/16 02:23:32;;;;;;;1.58;0.80;;;;;;;-143.29;100.00;62188.47;5076682;28;20486;-91
2023/10/16 02:26:01;;;;;;;2.45;1.45;;;;;;;-143.29;100.00;62188.47;5095239;28;20114;-90
2023/10/16 02:28:26;;;;;;;3.15;0.93;;;;;;;-143.29;100.00;62188.47;5090677;28;20024;-91
2023/10/16 02:30:52;;;;;;;2.58;0.82;;;;;;;-143.29;100.00;62188.47;5078478;28;20020;-91
2023/10/16 02:33:26;;;;;;;2.05;1.20;;;;;;;-143.29;100.00;62188.47;5093975;28;20054;-91
2023/10/16 02:35:53;;;;;;;9.07;1.60;;;;;;;-143.29;100.00;62188.47;5095136;28;20048;-92
2023/10/16 02:38:27;;;;;;;3.05;1.00;;;;;;;-143.29;100.00;62188.47;5091007;28;20028;-91
2023/10/16 02:40:54;;;;;;;2.63;1.00;;;;;;;-143.29;100.00;62188.47;5075710;28;20025;-91
2023/10/16 02:43:23;;;;;;;3.90;1.05;;;;;;;-143.29;100.00;62188.47;5054474;28;20016;-91
2023/10/16 02:45:52;;;;;;;3.45;1.33;;;;;;;-143.29;100.00;62188.47;5054698;28;20402;-92
2023/10/16 02:48:21;;;;;;;2.97;1.27;;;;;;;-143.29;100.00;62188.47;5054602;28;20070;-91
2023/10/16 02:50:50;;;;;;;4.32;1.40;;;;;;;-143.29;100.00;62188.47;5054612;28;20025;-91
2023/10/16 02:53:24;;;;;;;5.68;1.30;;;;;;;-143.29;100.00;62188.47;5058971;28;20430;-92
2023/10/16 02:55:57;;;;;;;2.05;1.05;;;;;;;-143.29;100.00;62188.47;5093390;28;20051;-92
2023/10/16 02:58:24;;;;;;;9.52;1.40;;;;;;;-143.29;100.00;62188.47;5093384;28;20028;-91
2023/10/16 03:00:55;;;;;;;4.50;1.10;;;;;;;-143.29;100.00;62188.47;5093466;28;20024;-91
2023/10/16 03:03:24;;;;;;;2.37;1.37;;;;;;;-143.29;100.00;62188.47;5093395;28;20024;-91
2023/10/16 03:05:50;;;;;;;3.67;1.10;;;;;;;-143.29;100.00;62188.47;5094521;28;20288;-91
2023/10/16 03:08:18;;;;;;;2.38;1.00;;;;;;;-143.29;100.00;62188.47;5090863;28;20439;-92
2023/10/16 03:10:45;;;;;;;4.88;1.27;;;;;;;-143.29;100.00;62188.47;5091589;28;20024;-92
2023/10/16 03:13:13;;;;;;;3.13;1.25;;;;;;;-143.29;100.00;62188.47;5085148;28;20042;-92
2023/10/16 03:15:45;;;;;;;2.28;0.88;;;;;;;-143.29;100.00;62188.47;5092784;28;20475;-91
2023/10/16 03:18:16;;;;;;;;;;;;;;;-143.29;100.00;62188.47;5094805;28;20028;-93
2023/10/16 03:20:46;;;;;;;4.80;1.40;;;;;;;-143.29;100.00;62188.47;5093925;28;19912;-91
2023/10/16 03:23:18;;;;;;;3.15;1.48;;;;;;;-143.29;100.00;62188.47;5094098;28;20034;-92
2023/10/16 03:28:09;;;;;;;8.05;1.58;;;;;;;-143.29;100.00;62188.47;5078289;28;20048;-93
2023/10/16 03:30:35;;;;;;;3.40;1.52;;;;;;;-143.29;100.00;62188.47;5072243;28;20374;-92
2023/10/16 03:33:03;;;;;;;3.03;1.52;;;;;;;-143.29;100.00;62188.47;5073166;28;20020;-92
2023/10/16 03:35:32;;;;;;;4.10;1.60;;;;;;;-143.29;100.00;62188.47;5073567;28;20086;-91
2023/10/16 03:37:58;;;;;;;1.95;1.25;;;;;;;-143.29;100.00;62188.47;5073543;28;20017;-92
2023/10/16 03:40:27;;;;;;;4.43;2.03;;;;;;;-143.29;100.00;62188.47;5072317;28;20382;-91
2023/10/16 03:42:56;;;;;;;3.50;1.45;;;;;;;-143.29;100.00;62188.47;5082487;28;20410;-92
2023/10/16 03:45:22;;;;;;;6.72;1.83;;;;;;;-143.29;100.00;62188.47;5092048;28;20024;-92
2023/10/16 03:47:57;;;;;;;6.13;1.85;;;;;;;-143.29;100.00;62188.47;5093620;28;20022;-92
2023/10/16 03:50:25;;;;;;;7.03;2.10;;;;;;;-143.29;100.00;62188.47;5093597;28;20012;-91
2023/10/16 03:52:54;;;;;;;2.20;1.02;;;;;;;-143.29;100.00;62188.47;5091172;28;20027;-92
2023/10/16 03:55:22;;;;;;;6.05;1.92;;;;;;;-143.29;100.00;62188.47;5092162;28;20088;-91
2023/10/16 03:57:52;;;;;;;4.63;1.50;;;;;;;-143.29;100.00;62188.47;5087413;28;20035;-92
2023/10/16 04:00:24;;;;;;;3.90;1.45;;;;;;;-143.29;100.00;62188.47;5091946;28;20028;-92
2023/10/16 04:02:49;;;;;;;2.58;1.15;;;;;;;-143.29;100.00;62188.47;5093242;28;20021;-92
2023/10/16 04:05:30;;;;;;;8.05;1.40;;;;;;;-143.29;100.00;62188.47;5093217;28;20039;-93
2023/10/16 04:07:56;;;;;;;3.50;0.90;;;;;;;-143.29;100.00;62188.47;5093427;28;20027;-92
2023/10/16 04:10:27;;;;;;;3.63;1.05;;;;;;;-143.29;100.00;62188.47;5091913;28;20024;-92
2023/10/16 04:12:58;;;;;;;5.63;1.20;;;;;;;-143.29;100.00;62188.47;5090321;28;20031;-92
2023/10/16 04:21:37;;;;;;;5.82;1.27;;;;;;;-143.29;100.00;62188.47;5092901;28;20021;-92
2023/10/16 04:26:29;;;;;;;3.05;1.15;;;;;;;-143.29;100.00;62188.47;5091121;28;20440;-92
2023/10/16 04:50:37;;;;;;;7.15;1.33;;;;;;;-143.29;100.00;62188.47;5092521;28;20024;-92
2023/10/16 04:53:11;;;;;;;2.75;1.33;;;;;;;-143.29;100.00;62188.47;5092458;28;20039;-92
2023/10/16 05:08:59;;;;;;;2.95;1.10;;;;;;;-143.29;100.00;62188.47;5092116;28;20067;-91
2023/10/16 05:14:22;;;;;;;3.30;1.00;;;;;;;-143.29;100.00;62188.47;5092224;28;20103;-91
2023/10/16 05:19:44;;;;;;;3.72;1.20;;;;;;;-143.29;100.00;62188.47;5092262;28;20027;-92
2023/10/16 06:14:13;;;;;;;2.83;0.98;;;;;;;-143.29;100.00;62188.47;5084536;28;20054;-92
2023/10/16 06:16:46;;;;;;;1.35;0.93;;;;;;;-143.29;100.00;62188.47;5072303;28;20070;-91
2023/10/16 06:19:19;;;;;;;5.10;1.10;;;;;;;-143.29;100.00;62188.47;5073637;28;20036;-91
2023/10/16 06:21:49;;;;;;;5.22;1.27;;;;;;;-143.29;100.00;62188.47;5073548;28;20036;-92
2023/10/16 06:27:08;;;;;;;8.85;1.45;;;;;;;-143.29;100.00;62188.47;5075112;28;20454;-91
2023/10/16 06:29:35;;;;;;;1.38;0.90;;;;;;;-143.29;100.00;62188.47;5094605;28;20028;-91
2023/10/16 06:32:19;;;;;;;3.97;1.20;;;;;;;-143.29;100.00;62188.47;5075533;28;20028;-92
2023/10/16 06:34:45;;;;;;;4.55;1.10;;;;;;;-143.29;100.00;62188.47;5094545;28;20035;-92
2023/10/16 06:37:10;;;;;;;4.25;1.35;;;;;;;-143.29;100.00;62188.47;5093754;28;20024;-92
2023/10/16 06:39:35;;;;;;;4.05;1.40;;;;;;;-143.29;100.00;62188.47;5094985;28;20020;-91
2023/10/16 06:42:04;;;;;;;5.35;2.03;;;;;;;-143.29;100.00;62188.47;5094807;28;20024;-91
2023/10/16 06:44:33;;;;;;;6.30;2.30;;;;;;;-143.29;100.00;62188.47;5092987;28;20077;-91
2023/10/16 06:46:59;;;;;;;4.68;1.50;;;;;;;-143.29;100.00;62188.47;5094638;28;20076;-92
2023/10/16 06:49:35;;;;;;;2.25;1.55;;;;;;;-143.29;100.00;62188.47;5094696;28;20024;-91
2023/10/16 06:52:04;;;;;;;2.47;1.80;;;;;;;-143.29;100.00;62188.47;5094490;28;20031;-91
2023/10/16 06:54:37;;;;;;;6.88;1.98;;;;;;;-143.29;100.00;62188.47;5093424;28;20064;-91
2023/10/16 06:57:10;;;;;;;3.95;1.58;;;;;;;-143.29;100.00;62188.47;5092408;28;20103;-91
2023/10/16 06:59:40;;;;;;;4.13;1.40;;;;;;;-143.29;100.00;62188.47;5073024;28;20466;-89
2023/10/16 07:02:08;;;;;;;3.88;1.17;;;;;;;-143.29;100.00;62188.47;5072522;28;20040;-94
2023/10/16 07:04:40;;;;;;;5.53;1.35;;;;;;;-143.29;100.00;62188.47;5060184;28;20144;-92
2023/10/16 07:07:14;;;;;;;2.72;1.20;;;;;;;-143.29;100.00;62188.47;5052767;28;20025;-94
2023/10/16 07:09:47;;;;;;;3.17;0.93;;;;;;;-143.29;100.00;62188.47;5052571;28;20436;-93
2023/10/16 07:12:18;;;;;;;3.17;1.45;;;;;;;-143.29;100.00;62188.47;5068414;28;20032;-92
2023/10/16 07:14:57;;;;;;;3.40;1.10;;;;;;;-143.29;100.00;62188.47;5070736;28;20031;-93
2023/10/16 07:17:28;;;;;;;2.53;1.13;;;;;;;-143.29;100.00;62188.47;5073394;28;20063;-92
2023/10/16 07:19:59;;;;;;;3.72;1.30;;;;;;;-143.29;100.00;62188.47;5070078;28;20021;-92
2023/10/16 07:22:31;;;;;;;5.97;1.50;;;;;;;-143.29;100.00;62188.47;5071457;28;20474;-92
2023/10/16 07:24:57;;;;;;;5.30;1.65;;;;;;;-143.29;100.00;62188.47;5071749;28;20036;-96
2023/10/16 07:27:23;;;;;;;3.53;1.63;;;;;;;-143.29;100.00;62188.47;5066784;28;20161;-93
2023/10/16 07:29:49;;;;;;;5.05;1.80;;;;;;;-143.29;100.00;62188.47;5071937;28;20104;-92
2023/10/16 07:32:14;;;;;;;6.50;2.05;;;;;;;-143.29;100.00;62188.47;5085120;28;20181;-93
2023/10/16 07:34:40;;;;;;;7.65;3.08;;;;;;;-143.29;100.00;62188.47;5090951;28;20039;-92
2023/10/16 07:37:07;;;;;;;5.80;2.55;;;;;;;-143.29;100.00;62188.47;5092169;28;20444;-92
2023/10/16 07:39:35;;;;;;;3.08;1.30;;;;;;;-143.29;100.00;62188.47;5091931;28;20081;-91
2023/10/16 07:42:03;;;;;;;6.50;2.28;;;;;;;-143.29;100.00;62188.47;5091863;28;20028;-93
2023/10/16 07:44:29;;;;;;;5.03;1.77;;;;;;;-143.29;100.00;62188.47;5090394;28;20032;-93
2023/10/16 07:46:54;;;;;;;2.97;1.40;;;;;;;-143.29;100.00;62188.47;5091496;28;20032;-91
2023/10/16 07:49:25;;;;;;;5.00;1.35;;;;;;;-143.29;100.00;62188.47;5093917;28;20103;-89
2023/10/16 07:51:52;;;;;;;3.97;1.40;;;;;;;-143.29;100.00;62188.47;5092049;28;20024;-93
2023/10/16 07:54:20;;;;;;;5.40;2.17;;;;;;;-143.29;100.00;62188.47;5093305;28;20028;-90
2023/10/16 07:56:46;;;;;;;5.20;1.98;;;;;;;-143.29;100.00;62188.47;5092252;28;20028;-92
2023/10/16 07:59:18;;;;;;;4.28;1.55;;;;;;;-143.29;100.00;62188.47;5092150;28;20169;-94
2023/10/16 08:01:57;;;;;;;7.97;1.70;;;;;;;-143.29;100.00;62188.47;5092063;28;20077;-93
2023/10/16 08:06:52;;;;;;;5.43;1.75;;;;;;;-143.29;100.00;62188.47;5093243;28;20093;-91
2023/10/16 08:11:57;;;;;;;3.75;1.50;;;;;;;-143.29;100.00;62188.47;5091252;28;20028;-92
2023/10/16 08:14:23;;;;;;;2.25;1.33;;;;;;;-143.29;100.00;62188.47;5092605;28;20060;-92
2023/10/16 08:16:49;;;;;;;3.85;1.40;;;;;;;-143.29;100.00;62188.47;5079865;28;20139;-91
2023/10/16 08:19:24;;;;;;;10.18;1.83;;;;;;;-143.29;100.00;62188.47;5074090;28;20427;-92
2023/10/16 08:21:50;;;;;;;3.85;1.45;;;;;;;-143.29;100.00;62188.47;5070629;28;20029;-92
2023/10/16 08:24:21;;;;;;;6.20;1.63;;;;;;;-143.29;100.00;62188.47;5069774;28;20028;-93
2023/10/16 08:26:48;;;;;;;6.07;1.80;;;;;;;-143.29;100.00;62188.47;5073336;28;20032;-93
2023/10/16 08:31:44;;;;;;;4.80;1.63;;;;;;;-143.29;100.00;62188.47;5071455;28;20474;-92
2023/10/16 08:34:21;;;;;;;5.25;1.98;;;;;;;-143.29;100.00;62188.47;5069939;28;20078;-93
2023/10/16 08:36:53;;;;;;;10.43;2.17;;;;;;;-143.29;100.00;62188.47;5067147;28;20159;-93
2023/10/16 08:39:21;;;;;;;6.03;1.85;;;;;;;-143.29;100.00;62188.47;5067032;28;20444;-93
2023/10/16 08:42:00;;;;;;;6.90;1.60;;;;;;;-143.29;100.00;62188.47;5067861;28;20486;-93
2023/10/16 08:44:28;;;;;;;5.85;1.95;;;;;;;-143.29;100.00;62188.47;5068935;28;20031;-93
2023/10/16 08:49:22;;;;;;;4.53;1.48;;;;;;;-143.29;100.00;62188.47;5068818;28;20028;-94
2023/10/16 08:51:55;;;;;;;7.47;3.45;;;;;;;-143.29;100.00;62188.47;5069592;28;20104;-92
2023/10/16 08:57:07;;;;;;;6.10;2.10;;;;;;;-143.29;100.00;62188.47;5068265;28;20036;-95
2023/10/16 08:59:35;;;;;;;4.88;1.52;;;;;;;-143.29;100.00;62188.47;5080025;28;20474;-94
2023/10/16 09:02:01;;;;;;;9.40;1.58;;;;;;;-143.29;100.00;62188.47;5068431;28;20020;-91
2023/10/16 09:04:27;;;;;;;4.72;1.45;;;;;;;-143.29;100.00;62188.47;5068971;28;20025;-90
2023/10/16 09:06:54;;;;;;;7.10;2.05;;;;;;;-143.29;100.00;62188.47;5068701;28;20103;-91
2023/10/16 09:09:20;;;;;;;6.68;2.40;;;;;;;-143.29;100.00;62188.47;5068166;28;20530;-90
2023/10/16 09:11:47;;;;;;;6.03;1.98;;;;;;;-143.29;100.00;62188.47;5072646;28;20119;-89
2023/10/16 09:14:17;;;;;;;15.05;2.08;;;;;;;-143.29;100.00;62188.47;5069829;28;20086;-93
2023/10/16 09:16:46;;;;;;;4.75;1.55;;;;;;;-143.29;100.00;62188.47;5068057;28;20479;-92
2023/10/16 09:19:14;;;;;;;4.15;1.67;;;;;;;-143.29;100.00;62188.47;5071173;28;20166;-93
2023/10/16 09:21:43;;;;;;;5.55;1.63;;;;;;;-143.29;100.00;62188.47;5068450;28;20028;-91
2023/10/16 09:24:11;;;;;;;39.58;3.78;;;;;;;-143.29;100.00;62188.47;5068338;28;20484;-93
2023/10/16 09:26:44;;;;;;;11.50;2.30;;;;;;;-143.29;100.00;62188.47;5067816;28;20474;-93
2023/10/16 09:29:20;;;;;;;20.23;3.90;;;;;;;-143.29;100.00;62188.47;5064584;28;20465;-93
2023/10/16 09:31:46;;;;;;;8.45;2.30;;;;;;;-143.29;100.00;62188.47;5063989;28;20056;-90
2023/10/16 09:34:19;;;;;;;3.55;1.55;;;;;;;-143.29;100.00;62188.47;5068486;28;20112;-94
2023/10/16 09:39:34;;;;;;;3.45;1.70;;;;;;;-143.29;100.00;62188.47;5066881;28;20039;-94
2023/10/16 09:42:05;;;;;;;7.75;1.77;;;;;;;-143.29;100.00;62188.47;5066602;28;20029;-90
2023/10/16 09:44:37;;;;;;;5.72;1.95;;;;;;;-143.29;100.00;62188.47;5066418;28;20402;-94
2023/10/16 09:47:25;;;;;;;6.40;2.05;;;;;;;-143.29;100.00;62188.47;5064312;28;20466;-92
2023/10/16 09:49:54;;;;;;;6.13;2.60;;;;;;;-143.29;100.00;62188.47;5065526;28;20033;-94
2023/10/16 09:52:22;;;;;;;6.35;2.40;;;;;;;-143.29;100.00;62188.47;5068177;28;20078;-92
2023/10/16 09:54:48;;;;;;;6.85;2.60;;;;;;;-143.29;100.00;62188.47;5068988;28;20056;-91
2023/10/16 09:57:22;;;;;;;18.23;3.28;;;;;;;-143.29;100.00;62188.47;5070360;28;20025;-92
2023/10/16 09:59:54;;;;;;;4.80;1.90;;;;;;;-143.29;100.00;62188.47;5068269;28;20029;-94
2023/10/16 10:02:21;;;;;;;6.95;2.20;;;;;;;-143.29;100.00;62188.47;5067307;28;20470;-92
2023/10/16 10:04:59;;;;;;;3.88;1.35;;;;;;;-143.29;100.00;62188.47;5070401;28;20036;-91
2023/10/16 10:07:38;;;;;;;6.30;1.63;;;;;;;-143.29;100.00;62188.47;5069520;28;20024;-91
2023/10/16 10:11:04;;;;;;;5.32;1.63;;;;;;;-143.29;100.00;62188.47;5069969;28;20120;-92
2023/10/16 10:12:53;;;;;;;6.75;1.50;;;;;;;-143.29;100.00;62188.47;5068781;28;20027;-92
2023/10/16 10:15:25;;;;;;;9.23;2.05;;;;;;;-143.29;100.00;62188.47;5069246;28;20036;-91
2023/10/16 10:17:55;;;;;;;4.55;1.40;;;;;;;-143.29;100.00;62188.47;5069663;28;20079;-91
2023/10/16 10:20:31;;;;;;;6.60;2.22;;;;;;;-143.29;100.00;62188.47;5069433;28;20574;-92
2023/10/16 10:23:08;;;;;;;5.07;2.05;;;;;;;-143.29;100.00;62188.47;5069369;28;20078;-94
2023/10/16 10:25:36;;;;;;;5.03;1.70;;;;;;;-143.29;100.00;62188.47;5070176;28;20028;-93
2023/10/16 10:28:22;;;;;;;5.25;1.65;;;;;;;-143.29;100.00;62188.47;5071221;28;20532;-93
2023/10/16 10:30:49;;;;;;;14.27;3.10;;;;;;;-143.29;100.00;62188.47;5071959;28;20183;-92
2023/10/16 10:33:36;;;;;;;3.60;1.83;;;;;;;-143.29;100.00;62188.47;5069209;28;20467;-93
2023/10/16 10:36:30;;;;;;;3.30;1.70;;;;;;;-143.29;100.00;62188.47;5071713;28;20024;-93
2023/10/16 10:39:21;;;;;;;6.07;1.55;;;;;;;-143.29;100.00;62188.47;5071385;28;20036;-92
2023/10/16 10:41:48;;;;;;;4.43;1.75;;;;;;;-143.29;100.00;62188.47;5055976;28;20378;-93
2023/10/16 10:44:15;;;;;;;7.38;2.00;;;;;;;-143.29;100.00;62188.47;5072660;28;20043;-92
2023/10/16 10:46:54;;;;;;;5.38;1.95;;;;;;;-143.29;100.00;62188.47;5072459;28;20402;-92
2023/10/16 10:49:34;;;;;;;10.57;2.28;;;;;;;-143.29;100.00;62188.47;5072227;28;20462;-93
2023/10/16 10:52:01;;;;;;;9.32;2.92;;;;;;;-143.29;100.00;62188.47;5071869;28;20025;-92
2023/10/16 10:54:27;;;;;;;6.85;1.73;;;;;;;-143.29;100.00;62188.47;5078732;28;20528;-92
2023/10/16 10:56:59;;;;;;;5.43;2.15;;;;;;;-143.29;100.00;62188.47;5092905;28;20066;-93
2023/10/16 10:59:55;;;;;;;4.60;1.70;;;;;;;-143.29;100.00;62188.47;5073928;28;20032;-92
2023/10/16 11:02:22;;;;;;;4.30;1.95;;;;;;;-143.29;100.00;62188.47;5073044;28;20055;-93
2023/10/16 11:04:58;;;;;;;10.55;2.40;;;;;;;-143.29;100.00;62188.47;5073427;28;20021;-93
2023/10/16 11:07:29;;;;;;;5.80;1.38;;;;;;;-143.29;100.00;62188.47;5070706;28;20059;-93
2023/10/16 11:09:57;;;;;;;8.40;1.80;;;;;;;-143.29;100.00;62188.47;5078814;28;20439;-93
2023/10/16 11:12:26;;;;;;;5.82;1.75;;;;;;;-143.29;100.00;62188.47;5073293;28;20073;-93
2023/10/16 11:14:53;;;;;;;10.25;2.33;;;;;;;-143.29;100.00;62188.47;5072680;28;20039;-93
2023/10/16 11:17:37;;;;;;;4.65;1.50;;;;;;;-143.29;100.00;62188.47;5072736;28;20120;-93
2023/10/16 11:22:44;;;;;;;3.97;1.10;;;;;;;-143.29;100.00;62188.47;5074190;28;20054;-94
2023/10/16 11:25:14;;;;;;;6.07;1.70;;;;;;;-143.29;100.00;62188.47;5075534;28;20110;-94
2023/10/16 11:27:44;;;;;;;4.63;0.98;;;;;;;-143.29;100.00;62188.47;5092806;28;20381;-94
2023/10/16 11:30:14;;;;;;;4.65;1.10;;;;;;;-143.29;100.00;62188.47;5092907;28;20035;-95
2023/10/16 11:32:45;;;;;;;4.20;1.30;;;;;;;-143.29;100.00;62188.47;5085369;28;20035;-93
2023/10/16 11:35:15;;;;;;;6.35;1.40;;;;;;;-143.29;100.00;62188.47;5086802;28;20031;-94
2023/10/16 11:37:55;;;;;;;4.03;1.38;;;;;;;-143.29;100.00;62188.47;5085901;28;20119;-94
2023/10/16 11:40:31;;;;;;;2.85;1.00;;;;;;;-143.29;100.00;62188.47;5075366;28;20036;-93
2023/10/16 11:42:58;;;;;;;5.32;1.33;;;;;;;-143.29;100.00;62188.47;5073917;28;20036;-96
2023/10/16 11:45:24;;;;;;;8.43;1.95;;;;;;;-143.29;100.00;62188.47;5163431;22;20041;-95
2023/10/16 11:50:41;;;;;;;9.07;2.30;;;;;;;-143.29;100.00;62188.47;5095359;28;20042;-94
2023/10/16 11:53:23;;;;;;;6.53;1.90;;;;;;;-143.29;100.00;62188.47;5067602;28;20096;-96
2023/10/16 11:55:53;;;;;;;5.78;2.15;;;;;;;-143.29;100.00;62188.47;5073925;28;20084;-95
2023/10/16 11:58:22;;;;;;;7.22;2.53;;;;;;;-143.29;100.00;62188.47;5069840;28;20024;-96
2023/10/16 12:00:56;;;;;;;5.15;1.30;;;;;;;-143.29;100.00;62188.47;5060472;28;20153;-96
2023/10/16 12:03:26;;;;;;;5.32;1.52;;;;;;;-143.29;100.00;62188.47;5060420;28;20055;-96
2023/10/16 12:05:55;;;;;;;12.70;1.75;;;;;;;-143.29;100.00;62188.47;5062103;28;20047;-96
2023/10/16 12:08:21;;;;;;;3.03;1.60;;;;;;;-143.29;100.00;62188.47;5043304;28;20024;-95
2023/10/16 12:10:50;;;;;;;4.28;1.35;;;;;;;-143.29;100.00;62188.47;5049890;28;20024;-95
2023/10/16 12:13:16;;;;;;;3.35;1.25;;;;;;;-143.29;100.00;62188.47;5062124;28;20048;-94
2023/10/16 12:15:43;;;;;;;4.57;1.33;;;;;;;-143.29;100.00;62188.47;5061221;28;20424;-96
2023/10/16 12:18:09;;;;;;;3.28;0.98;;;;;;;-143.29;100.00;62188.47;5057458;28;20044;-96
2023/10/16 12:20:37;;;;;;;6.57;0.75;;;;;;;-143.29;100.00;62188.47;5048896;28;20032;-95
2023/10/16 12:23:04;;;;;;;5.55;1.60;;;;;;;-143.29;100.00;62188.47;5048061;28;20043;-96
2023/10/16 12:25:30;;;;;;;4.13;1.25;;;;;;;-143.29;100.00;62188.47;5058940;28;20035;-95
2023/10/16 12:27:55;;;;;;;2.67;1.20;;;;;;;-143.29;100.00;62188.47;5056352;28;20497;-95
2023/10/16 12:30:21;;;;;;;7.97;1.23;;;;;;;-143.29;100.00;62188.47;5060588;28;20032;-95
2023/10/16 12:32:48;;;;;;;3.10;1.45;;;;;;;-143.29;100.00;62188.47;5056858;28;20016;-94
2023/10/16 12:35:17;;;;;;;3.60;1.52;;;;;;;-143.29;100.00;62188.47;5070272;28;20039;-94
2023/10/16 12:37:43;;;;;;;5.30;1.27;;;;;;;-143.29;100.00;62188.47;5059718;28;20028;-93
2023/10/16 12:40:33;;;;;;;6.68;1.75;;;;;;;-143.29;100.00;62188.47;5056755;28;20106;-96
2023/10/16 12:43:10;;;;;;;;;;;;;;;;;;;;;
2023/10/16 12:46:00;;;;;;;4.95;1.35;;;;;;;-143.29;100.00;62188.47;5071424;28;20032;-96
2023/10/16 12:48:29;;;;;;;8.57;2.15;;;;;;;-143.29;100.00;62188.47;5050721;28;20032;-96
2023/10/16 12:50:59;;;;;;;8.48;1.45;;;;;;;-143.29;100.00;62188.47;5051687;28;20017;-94
2023/10/16 12:53:26;;;;;;;5.50;0.90;;;;;;;-143.29;100.00;62188.47;5050786;28;20382;-95
2023/10/16 12:55:55;;;;;;;6.75;1.50;;;;;;;-143.29;100.00;62188.47;5050996;28;20024;-91
2023/10/16 12:58:22;;;;;;;3.47;1.10;;;;;;;-143.29;100.00;62188.47;5066449;28;20060;-96
2023/10/16 13:00:50;;;;;;;11.45;1.60;;;;;;;-143.29;100.00;62188.47;5064992;28;20021;-96
2023/10/16 13:03:22;;;;;;;6.28;1.63;;;;;;;-143.29;100.00;62188.47;5048905;28;20032;-95
2023/10/16 13:05:48;;;;;;;5.78;1.65;;;;;;;-143.29;100.00;62188.47;5050797;28;20490;-96
2023/10/16 13:08:17;;;;;;;4.72;0.98;;;;;;;-143.29;100.00;62188.47;5050317;28;20028;-92
2023/10/16 13:10:43;;;;;;;3.78;1.60;;;;;;;-143.29;100.00;62188.47;5067530;28;20027;-92
2023/10/16 13:13:09;;;;;;;4.10;1.45;;;;;;;-143.29;100.00;62188.47;5049157;28;20031;-96
2023/10/16 13:15:35;;;;;;;3.38;1.10;;;;;;;-143.29;100.00;62188.47;5048204;28;20032;-94
2023/10/16 13:18:01;;;;;;;4.93;1.95;;;;;;;-143.29;100.00;62188.47;5046051;28;20028;-93
2023/10/16 13:20:32;;;;;;;7.32;1.60;;;;;;;-143.29;100.00;62188.47;5064184;28;20021;-95
2023/10/16 13:22:58;;;;;;;5.80;1.73;;;;;;;-143.29;100.00;62188.47;5065938;28;20466;-95
2023/10/16 13:25:25;;;;;;;5.90;1.40;;;;;;;-143.29;100.00;62188.47;5049141;28;20068;-94
2023/10/16 13:27:54;;;;;;;7.85;1.63;;;;;;;-143.29;100.00;62188.47;5067851;28;20021;-93
2023/10/16 13:30:22;;;;;;;3.47;1.23;;;;;;;-143.29;100.00;62188.47;5066760;28;20029;-93